createdAt,value
2018-09-06T00:00:49.879Z,10.40
2018-09-06T00:03:19.068Z,10.17
2018-09-06T00:05:48.334Z,10.43
2018-09-06T00:08:17.454Z,9.47
2018-09-06T00:10:46.603Z,9.20
2018-09-06T00:13:16.304Z,9.63
2018-09-06T00:15:45.441Z,9.37
2018-09-06T00:18:14.639Z,10.43
2018-09-06T00:20:43.769Z,10.97
2018-09-06T00:23:13.046Z,9.47
2018-09-06T00:25:42.257Z,9.50
2018-09-06T00:28:11.497Z,10.70
2018-09-06T00:30:40.622Z,9.57
2018-09-06T00:33:09.825Z,10.07
2018-09-06T00:35:38.972Z,9.47
2018-09-06T00:38:08.126Z,9.47
2018-09-06T00:40:37.228Z,10.57
2018-09-06T00:43:06.425Z,10.40
2018-09-06T00:45:35.788Z,9.80
2018-09-06T00:48:05.204Z,9.67
2018-09-06T00:50:39.276Z,10.23
2018-09-06T00:53:08.536Z,10.20
2018-09-06T00:55:37.764Z,10.37
2018-09-06T00:58:06.938Z,11.00
2018-09-06T01:00:36.122Z,9.47
2018-09-06T01:03:05.383Z,8.60
2018-09-06T01:05:34.484Z,10.27
2018-09-06T01:08:03.719Z,10.60
2018-09-06T01:10:32.865Z,10.93
2018-09-06T01:13:02.012Z,11.00
2018-09-06T01:15:31.167Z,9.97
2018-09-06T01:18:00.220Z,10.33
2018-09-06T01:20:29.442Z,10.77
2018-09-06T01:22:58.584Z,10.90
2018-09-06T01:25:31.864Z,9.90
2018-09-06T01:28:00.942Z,9.77
2018-09-06T01:30:30.122Z,10.17
2018-09-06T01:32:59.370Z,10.37
2018-09-06T01:35:28.555Z,10.50
2018-09-06T01:37:57.672Z,10.47
2018-09-06T01:40:26.802Z,10.43
2018-09-06T01:42:55.908Z,10.60
2018-09-06T01:45:25.043Z,10.60
2018-09-06T01:47:54.160Z,10.77
2018-09-06T01:50:23.235Z,10.47
2018-09-06T01:52:52.392Z,11.30
2018-09-06T01:55:21.523Z,10.53
2018-09-06T01:57:50.636Z,10.10
2018-09-06T02:00:19.923Z,11.07
2018-09-06T02:02:49.013Z,10.63
2018-09-06T02:05:23.269Z,11.13
2018-09-06T02:07:52.368Z,10.33
2018-09-06T02:10:21.546Z,10.53
2018-09-06T02:12:50.730Z,10.20
2018-09-06T02:15:19.823Z,11.20
2018-09-06T02:17:48.983Z,9.47
2018-09-06T02:20:18.133Z,9.73
2018-09-06T02:22:47.305Z,10.17
2018-09-06T02:25:16.575Z,9.70
2018-09-06T02:27:45.777Z,9.83
2018-09-06T02:30:14.841Z,9.80
2018-09-06T02:32:43.975Z,10.40
2018-09-06T02:35:13.084Z,10.10
2018-09-06T02:37:42.304Z,9.53
2018-09-06T02:40:16.362Z,9.13
2018-09-06T02:42:45.456Z,10.57
2018-09-06T02:45:14.677Z,10.77
2018-09-06T02:47:48.958Z,10.20
2018-09-06T02:50:23.294Z,10.57
2018-09-06T02:52:53.409Z,10.23
2018-09-06T02:55:22.869Z,10.07
2018-09-06T02:57:52.006Z,11.27
2018-09-06T03:00:27.110Z,10.13
2018-09-06T03:02:56.287Z,9.63
2018-09-06T03:05:26.096Z,9.97
2018-09-06T03:07:56.286Z,10.27
2018-09-06T03:10:27.258Z,10.07
2018-09-06T03:12:56.289Z,10.30
2018-09-06T03:15:25.523Z,10.23
2018-09-06T03:17:54.641Z,9.80
2018-09-06T03:20:23.799Z,10.00
2018-09-06T03:22:57.826Z,10.07
2018-09-06T03:25:26.891Z,10.37
2018-09-06T03:27:55.989Z,10.47
2018-09-06T03:30:25.239Z,10.90
2018-09-06T03:32:54.314Z,9.13
2018-09-06T03:35:23.423Z,9.90
2018-09-06T03:37:52.455Z,11.17
2018-09-06T03:40:21.594Z,10.10
2018-09-06T03:42:50.665Z,10.40
2018-09-06T03:45:19.871Z,10.10
2018-09-06T03:47:48.955Z,11.40
2018-09-06T03:50:18.124Z,9.90
2018-09-06T03:52:47.233Z,10.13
2018-09-06T03:55:16.385Z,10.13
2018-09-06T03:57:45.570Z,10.77
2018-09-06T04:00:14.636Z,9.33
2018-09-06T04:02:43.718Z,10.37
2018-09-06T04:05:12.715Z,10.00
2018-09-06T04:07:41.808Z,10.53
2018-09-06T04:10:10.982Z,9.47
2018-09-06T04:12:40.105Z,11.63
2018-09-06T04:15:09.169Z,15.47
2018-09-06T04:17:38.367Z,10.07
2018-09-06T04:20:07.620Z,10.90
2018-09-06T04:22:41.093Z,9.57
2018-09-06T04:25:10.299Z,9.70
2018-09-06T04:27:39.305Z,10.37
2018-09-06T04:30:11.448Z,9.67
2018-09-06T04:32:40.565Z,9.77
2018-09-06T04:35:09.699Z,9.30
2018-09-06T04:37:38.731Z,10.70
2018-09-06T04:40:08.246Z,10.87
2018-09-06T04:42:37.511Z,9.60
2018-09-06T04:45:06.576Z,10.73
2018-09-06T04:47:35.655Z,10.37
2018-09-06T04:50:04.790Z,10.17
2018-09-06T04:52:33.910Z,10.67
2018-09-06T04:55:03.005Z,10.40
2018-09-06T04:57:32.099Z,12.37
2018-09-06T05:00:01.152Z,10.77
2018-09-06T05:02:36.751Z,9.63
2018-09-06T05:05:06.115Z,10.83
2018-09-06T05:07:35.185Z,10.67
2018-09-06T05:10:04.409Z,10.97
2018-09-06T05:12:33.517Z,9.93
2018-09-06T05:15:02.573Z,11.50
2018-09-06T05:17:31.720Z,11.10
2018-09-06T05:20:00.810Z,10.37
2018-09-06T05:22:29.872Z,10.93
2018-09-06T05:24:59.047Z,11.10
2018-09-06T05:27:28.203Z,10.67
2018-09-06T05:29:57.340Z,10.07
2018-09-06T05:32:26.422Z,12.23
2018-09-06T05:34:55.556Z,11.53
2018-09-06T05:37:24.584Z,11.53
2018-09-06T05:39:53.668Z,10.77
2018-09-06T05:42:22.869Z,11.17
2018-09-06T05:44:52.057Z,10.27
2018-09-06T05:47:21.329Z,12.57
2018-09-06T05:49:50.420Z,11.80
2018-09-06T05:52:19.587Z,11.73
2018-09-06T05:54:48.669Z,11.80
2018-09-06T05:57:17.835Z,11.53
2018-09-06T05:59:46.944Z,12.60
2018-09-06T06:02:16.123Z,11.33
2018-09-06T06:04:45.236Z,12.43
2018-09-06T06:07:14.442Z,11.60
2018-09-06T06:09:43.685Z,13.13
2018-09-06T06:12:12.957Z,12.17
2018-09-06T06:14:42.208Z,12.03
2018-09-06T06:17:11.420Z,11.40
2018-09-06T06:19:40.746Z,11.77
2018-09-06T06:22:10.011Z,12.67
2018-09-06T06:24:39.185Z,13.27
2018-09-06T06:27:08.419Z,12.43
2018-09-06T06:29:37.624Z,12.97
2018-09-06T06:32:06.918Z,12.50
2018-09-06T06:34:36.304Z,13.40
2018-09-06T06:37:05.636Z,12.40
2018-09-06T06:39:34.851Z,12.70
2018-09-06T06:42:04.110Z,10.87
2018-09-06T06:44:33.305Z,12.83
2018-09-06T06:47:02.550Z,12.67
2018-09-06T06:49:31.788Z,12.53
2018-09-06T06:52:01.079Z,11.67
2018-09-06T06:54:30.320Z,12.87
2018-09-06T06:56:59.458Z,12.43
2018-09-06T06:59:28.699Z,14.17
2018-09-06T07:01:57.933Z,12.40
2018-09-06T07:04:27.108Z,13.90
2018-09-06T07:06:56.353Z,13.00
2018-09-06T07:09:25.435Z,13.13
2018-09-06T07:11:54.669Z,13.00
2018-09-06T07:14:23.954Z,12.90
2018-09-06T07:16:53.150Z,11.43
2018-09-06T07:19:22.305Z,13.67
2018-09-06T07:21:51.474Z,12.67
2018-09-06T07:24:20.605Z,12.77
2018-09-06T07:26:49.870Z,11.33
2018-09-06T07:29:18.938Z,11.70
2018-09-06T07:31:48.145Z,13.43
2018-09-06T07:34:17.368Z,11.77
2018-09-06T07:36:46.687Z,10.23
2018-09-06T07:39:16.002Z,10.47
2018-09-06T07:41:45.158Z,10.37
2018-09-06T07:44:14.209Z,10.70
2018-09-06T07:46:43.426Z,9.00
2018-09-06T07:49:12.479Z,10.87
2018-09-06T07:51:41.841Z,10.43
2018-09-06T07:54:11.319Z,9.47
2018-09-06T07:56:41.372Z,8.37
2018-09-06T07:59:11.130Z,8.70
2018-09-06T08:01:41.675Z,8.97
2018-09-06T08:04:11.343Z,8.60
2018-09-06T08:06:41.381Z,7.60
2018-09-06T08:09:12.684Z,8.13
2018-09-06T08:11:42.647Z,8.07
2018-09-06T08:14:13.696Z,10.33
2018-09-06T08:16:43.225Z,9.07
2018-09-06T08:19:12.518Z,8.27
2018-09-06T08:21:41.590Z,8.27
2018-09-06T08:24:10.751Z,8.37
2018-09-06T08:26:39.920Z,8.33
2018-09-06T08:29:09.001Z,7.83
2018-09-06T08:31:38.072Z,10.63
2018-09-06T08:34:07.324Z,10.43
2018-09-06T08:36:36.533Z,8.53
2018-09-06T08:39:08.763Z,8.73
2018-09-06T08:41:38.723Z,8.00
2018-09-06T08:44:07.876Z,7.33
2018-09-06T08:46:37.856Z,8.87
2018-09-06T08:49:07.156Z,8.47
2018-09-06T08:51:36.444Z,7.33
2018-09-06T08:54:05.729Z,7.50
2018-09-06T08:56:36.289Z,7.67
2018-09-06T08:59:05.484Z,7.63
2018-09-06T09:01:39.504Z,8.43
2018-09-06T09:04:09.211Z,8.67
2018-09-06T09:06:38.969Z,7.90
2018-09-06T09:09:12.378Z,7.10
2018-09-06T09:11:41.533Z,6.60
2018-09-06T09:14:11.005Z,7.40
2018-09-06T09:16:40.243Z,7.10
2018-09-06T09:19:09.675Z,7.53
2018-09-06T09:21:38.834Z,7.87
2018-09-06T09:24:07.922Z,8.27
2018-09-06T09:26:37.315Z,8.20
2018-09-06T09:29:06.556Z,7.73
2018-09-06T09:31:35.753Z,8.77
2018-09-06T09:34:04.984Z,8.37
2018-09-06T09:36:34.163Z,9.23
2018-09-06T09:39:03.639Z,7.30
2018-09-06T09:41:35.141Z,8.23
2018-09-06T09:44:05.607Z,7.30
2018-09-06T09:49:04.308Z,8.60
2018-09-06T09:51:33.480Z,8.27
2018-09-06T09:54:02.628Z,9.07
2018-09-06T09:56:31.690Z,8.47
2018-09-06T09:59:00.972Z,9.30
2018-09-06T10:01:35.345Z,7.20
2018-09-06T10:04:09.782Z,7.87
2018-09-06T10:06:44.126Z,8.23
2018-09-06T10:09:19.089Z,7.60
2018-09-06T10:11:48.311Z,7.67
2018-09-06T10:14:17.614Z,6.97
2018-09-06T10:16:47.347Z,7.53
2018-09-06T10:19:17.099Z,8.40
2018-09-06T10:21:47.513Z,7.30
2018-09-06T10:24:17.042Z,7.87
2018-09-06T10:26:46.437Z,7.57
2018-09-06T10:29:15.664Z,7.63
2018-09-06T10:31:44.995Z,7.50
2018-09-06T10:34:14.217Z,7.73
2018-09-06T10:36:43.463Z,7.10
2018-09-06T10:39:12.690Z,7.57
2018-09-06T10:41:41.866Z,8.00
2018-09-06T10:44:11.092Z,7.30
2018-09-06T10:46:40.372Z,7.47
2018-09-06T10:49:09.524Z,7.30
2018-09-06T10:51:38.705Z,8.47
2018-09-06T10:54:07.905Z,8.33
2018-09-06T10:56:37.200Z,7.00
2018-09-06T10:59:06.774Z,8.03
2018-09-06T11:01:36.086Z,7.60
2018-09-06T11:04:05.493Z,7.80
2018-09-06T11:06:34.743Z,7.90
2018-09-06T11:09:04.863Z,7.60
2018-09-06T11:11:34.054Z,7.00
2018-09-06T11:14:03.297Z,6.47
2018-09-06T11:16:32.539Z,6.60
2018-09-06T11:19:01.720Z,7.23
2018-09-06T11:21:30.860Z,7.03
2018-09-06T11:24:00.036Z,7.53
2018-09-06T11:26:29.297Z,7.60
2018-09-06T11:28:58.404Z,7.10
2018-09-06T11:31:27.479Z,6.83
2018-09-06T11:33:56.630Z,7.00
2018-09-06T11:36:25.894Z,7.37
2018-09-06T11:38:55.123Z,7.23
2018-09-06T11:41:24.410Z,7.50
2018-09-06T11:43:53.762Z,7.27
2018-09-06T11:46:23.122Z,7.37
2018-09-06T11:48:52.391Z,7.40
2018-09-06T11:51:21.628Z,6.90
2018-09-06T11:53:50.815Z,7.83
2018-09-06T11:56:20.105Z,7.17
2018-09-06T11:58:49.392Z,6.87
2018-09-06T12:01:18.722Z,7.17
2018-09-06T12:03:48.003Z,6.87
2018-09-06T12:06:17.325Z,6.90
2018-09-06T12:08:46.632Z,6.73
2018-09-06T12:11:15.875Z,6.60
2018-09-06T12:13:45.063Z,6.93
2018-09-06T12:16:14.412Z,6.13
2018-09-06T12:18:43.503Z,6.80
2018-09-06T12:21:12.757Z,6.63
2018-09-06T12:23:41.845Z,6.70
2018-09-06T12:26:11.160Z,6.70
2018-09-06T12:28:40.485Z,7.00
2018-09-06T12:31:09.665Z,6.40
2018-09-06T12:33:39.017Z,6.13
2018-09-06T12:36:08.321Z,6.57
2018-09-06T12:38:37.500Z,7.07
2018-09-06T12:41:07.641Z,6.37
2018-09-06T12:43:37.048Z,7.00
2018-09-06T12:46:06.431Z,7.17
2018-09-06T12:48:35.675Z,6.73
2018-09-06T12:51:04.991Z,6.43
2018-09-06T12:53:34.256Z,6.03
2018-09-06T12:56:03.534Z,6.63
2018-09-06T12:58:32.739Z,6.80
2018-09-06T13:01:01.936Z,7.50
2018-09-06T13:03:31.064Z,7.30
2018-09-06T13:06:00.299Z,7.40
2018-09-06T13:08:29.551Z,7.57
2018-09-06T13:10:58.763Z,6.20
2018-09-06T13:13:28.005Z,7.20
2018-09-06T13:15:57.201Z,6.70
2018-09-06T13:18:26.325Z,6.70
2018-09-06T13:20:55.594Z,6.77
2018-09-06T13:23:24.691Z,7.07
2018-09-06T13:25:53.844Z,6.23
2018-09-06T13:28:23.000Z,6.50
2018-09-06T13:30:52.324Z,7.60
2018-09-06T13:33:21.471Z,7.37
2018-09-06T13:35:50.638Z,6.53
2018-09-06T13:38:19.819Z,6.97
2018-09-06T13:40:49.035Z,6.93
2018-09-06T13:43:18.261Z,7.07
2018-09-06T13:45:49.041Z,6.97
2018-09-06T13:48:18.237Z,6.70
2018-09-06T13:50:47.340Z,6.67
2018-09-06T13:53:16.546Z,6.67
2018-09-06T13:55:45.779Z,6.27
2018-09-06T13:58:14.964Z,6.93
2018-09-06T14:00:44.120Z,7.07
2018-09-06T14:03:13.343Z,6.70
2018-09-06T14:05:42.455Z,6.90
2018-09-06T14:08:11.624Z,6.50
2018-09-06T14:10:40.734Z,6.43
2018-09-06T14:13:09.910Z,6.83
2018-09-06T14:15:38.974Z,7.03
2018-09-06T14:18:08.098Z,6.30
2018-09-06T14:20:37.163Z,6.17
2018-09-06T14:23:06.360Z,6.93
2018-09-06T14:25:35.468Z,6.87
2018-09-06T14:28:04.678Z,7.10
2018-09-06T14:30:33.862Z,6.90
2018-09-06T14:33:02.929Z,6.30
2018-09-06T14:35:32.012Z,6.90
2018-09-06T14:38:01.212Z,7.10
2018-09-06T14:40:30.345Z,5.90
2018-09-06T14:42:59.535Z,6.30
2018-09-06T14:45:28.890Z,6.53
2018-09-06T14:47:58.102Z,5.70
2018-09-06T14:50:27.355Z,6.10
2018-09-06T14:52:56.780Z,6.87
2018-09-06T14:55:25.978Z,6.40
2018-09-06T14:57:55.131Z,6.43
2018-09-06T15:00:24.596Z,6.10
2018-09-06T15:02:53.787Z,7.00
2018-09-06T15:05:22.960Z,6.33
2018-09-06T15:07:52.096Z,6.67
2018-09-06T15:10:21.196Z,6.33
2018-09-06T15:12:50.324Z,6.70
2018-09-06T15:15:19.548Z,6.60
2018-09-06T15:17:48.713Z,6.20
2018-09-06T15:20:17.917Z,7.10
2018-09-06T15:22:47.094Z,5.93
2018-09-06T15:25:16.364Z,6.53
2018-09-06T15:27:45.585Z,7.43
2018-09-06T15:30:14.839Z,6.63
2018-09-06T15:32:43.912Z,6.40
2018-09-06T15:35:13.095Z,6.60
2018-09-06T15:37:42.238Z,6.43
2018-09-06T15:40:11.270Z,6.57
2018-09-06T15:42:40.500Z,6.70
2018-09-06T15:45:09.801Z,6.37
2018-09-06T15:47:39.011Z,7.43
2018-09-06T15:50:08.229Z,6.50
2018-09-06T15:52:37.340Z,6.43
2018-09-06T15:55:06.458Z,6.43
2018-09-06T15:57:35.556Z,6.97
2018-09-06T16:00:04.652Z,7.00
2018-09-06T16:02:33.736Z,7.83
2018-09-06T16:05:03.505Z,7.30
2018-09-06T16:07:32.659Z,7.30
2018-09-06T16:10:01.807Z,6.70
2018-09-06T16:12:30.950Z,7.00
2018-09-06T16:15:00.130Z,7.80
2018-09-06T16:17:29.258Z,7.27
2018-09-06T16:19:58.483Z,7.80
2018-09-06T16:22:27.569Z,7.13
2018-09-06T16:24:56.719Z,7.43
2018-09-06T16:27:32.202Z,7.57
2018-09-06T16:30:06.077Z,7.90
2018-09-06T16:32:35.190Z,7.53
2018-09-06T16:35:04.471Z,7.80
2018-09-06T16:37:33.681Z,7.67
2018-09-06T16:40:02.880Z,7.03
2018-09-06T16:42:32.115Z,8.10
2018-09-06T16:45:01.253Z,8.40
2018-09-06T16:47:30.485Z,7.20
2018-09-06T16:49:59.720Z,7.50
2018-09-06T16:52:28.939Z,7.53
2018-09-06T16:54:58.109Z,7.37
2018-09-06T16:57:27.332Z,7.93
2018-09-06T16:59:56.581Z,7.23
2018-09-06T17:02:25.755Z,7.23
2018-09-06T17:04:55.058Z,8.27
2018-09-06T17:07:24.412Z,8.30
2018-09-06T17:09:53.657Z,8.30
2018-09-06T17:12:23.020Z,8.03
2018-09-06T17:14:52.263Z,8.50
2018-09-06T17:17:21.375Z,8.23
2018-09-06T17:19:50.582Z,8.13
2018-09-06T17:22:19.690Z,7.90
2018-09-06T17:24:48.883Z,7.90
2018-09-06T17:27:18.039Z,8.17
2018-09-06T17:29:47.030Z,7.73
2018-09-06T17:32:16.145Z,8.03
2018-09-06T17:34:44.916Z,8.33
2018-09-06T17:37:13.871Z,7.53
2018-09-06T17:39:42.893Z,7.77
2018-09-06T17:42:11.840Z,8.37
2018-09-06T17:44:40.816Z,8.70
2018-09-06T17:47:09.789Z,8.57
2018-09-06T17:49:38.796Z,8.00
2018-09-06T17:52:07.778Z,8.17
2018-09-06T17:54:36.704Z,9.37
2018-09-06T17:57:05.729Z,9.10
2018-09-06T17:59:34.640Z,8.17
2018-09-06T18:02:03.730Z,8.43
2018-09-06T18:04:32.744Z,8.27
2018-09-06T18:07:01.788Z,8.13
2018-09-06T18:09:30.821Z,8.50
2018-09-06T18:12:00.020Z,8.33
2018-09-06T18:14:28.960Z,7.50
2018-09-06T18:16:58.043Z,8.10
2018-09-06T18:19:27.081Z,7.67
2018-09-06T18:21:56.063Z,8.20
2018-09-06T18:24:25.105Z,8.20
2018-09-06T18:26:54.118Z,8.50
2018-09-06T18:29:23.044Z,8.33
2018-09-06T18:31:52.095Z,8.53
2018-09-06T18:34:21.058Z,9.67
2018-09-06T18:36:50.171Z,8.93
2018-09-06T18:39:19.085Z,8.40
2018-09-06T18:41:48.035Z,8.70
2018-09-06T18:44:16.997Z,8.53
2018-09-06T18:46:45.915Z,8.57
2018-09-06T18:49:14.896Z,8.20
2018-09-06T18:51:43.960Z,7.93
2018-09-06T18:57:15.642Z,8.83
2018-09-06T18:59:44.794Z,8.33
2018-09-06T19:02:13.827Z,9.00
2018-09-06T19:04:42.770Z,8.57
2018-09-06T19:07:11.880Z,8.33
2018-09-06T19:09:42.348Z,8.83
2018-09-06T19:12:11.308Z,8.37
2018-09-06T19:14:40.352Z,8.43
2018-09-06T19:17:09.260Z,9.33
2018-09-06T19:19:38.226Z,8.43
2018-09-06T19:22:07.515Z,8.17
2018-09-06T19:24:36.410Z,9.03
2018-09-06T19:27:05.544Z,8.70
2018-09-06T19:29:34.545Z,8.73
2018-09-06T19:32:03.578Z,9.23
2018-09-06T19:34:32.545Z,8.03
2018-09-06T19:37:01.575Z,9.17
2018-09-06T19:39:30.659Z,9.33
2018-09-06T19:41:59.771Z,8.93
2018-09-06T19:44:28.662Z,8.80
2018-09-06T19:46:57.574Z,9.27
2018-09-06T19:49:26.846Z,9.03
2018-09-06T19:51:55.869Z,9.67
2018-09-06T19:54:24.858Z,9.60
2018-09-06T19:56:53.920Z,9.50
2018-09-06T19:59:23.971Z,10.07
2018-09-06T20:01:53.004Z,9.40
2018-09-06T20:04:22.115Z,10.10
2018-09-06T20:06:51.411Z,8.97
2018-09-06T20:09:20.317Z,9.67
2018-09-06T20:11:49.347Z,9.40
2018-09-06T20:14:18.322Z,9.60
2018-09-06T20:16:47.480Z,9.40
2018-09-06T20:19:16.392Z,9.33
2018-09-06T20:21:45.385Z,9.93
2018-09-06T20:24:14.373Z,9.80
2018-09-06T20:26:43.369Z,8.37
2018-09-06T20:29:12.262Z,8.87
2018-09-06T20:31:41.391Z,8.67
2018-09-06T20:34:10.542Z,9.90
2018-09-06T20:36:39.523Z,9.40
2018-09-06T20:39:09.771Z,8.93
2018-09-06T20:41:39.157Z,9.50
2018-09-06T20:44:08.094Z,9.30
2018-09-06T20:46:37.089Z,9.67
2018-09-06T20:49:06.116Z,9.40
2018-09-06T20:51:35.040Z,10.07
2018-09-06T20:54:04.354Z,9.57
2018-09-06T20:56:33.410Z,9.57
2018-09-06T20:59:02.380Z,9.20
2018-09-06T21:01:31.567Z,8.70
2018-09-06T21:04:00.530Z,10.03
2018-09-06T21:06:29.599Z,9.93
2018-09-06T21:08:58.661Z,10.40
2018-09-06T21:11:27.581Z,10.77
2018-09-06T21:13:56.526Z,9.40
2018-09-06T21:16:25.463Z,9.30
2018-09-06T21:19:05.624Z,9.67
2018-09-06T21:21:34.565Z,9.83
2018-09-06T21:24:03.501Z,10.00
2018-09-06T21:26:32.479Z,10.00
2018-09-06T21:29:01.454Z,9.87
2018-09-06T21:31:30.587Z,10.07
2018-09-06T21:33:59.509Z,9.23
2018-09-06T21:36:28.454Z,10.67
2018-09-06T21:38:57.407Z,9.60
2018-09-06T21:41:26.398Z,10.10
2018-09-06T21:43:55.332Z,9.77
2018-09-06T21:46:24.389Z,9.70
2018-09-06T21:48:53.438Z,10.33
2018-09-06T21:51:22.559Z,10.33
2018-09-06T21:53:51.506Z,10.00
2018-09-06T21:56:20.378Z,9.00
2018-09-06T21:58:49.426Z,10.93
2018-09-06T22:01:18.404Z,10.90
2018-09-06T22:03:52.526Z,10.47
2018-09-06T22:06:21.486Z,10.10
2018-09-06T22:08:50.475Z,10.53
2018-09-06T22:11:19.686Z,9.23
2018-09-06T22:13:48.801Z,11.67
2018-09-06T22:16:17.894Z,10.67
2018-09-06T22:18:46.926Z,10.40
2018-09-06T22:21:15.914Z,10.43
2018-09-06T22:23:44.855Z,10.77
2018-09-06T22:26:13.898Z,10.40
2018-09-06T22:28:42.885Z,9.87
2018-09-06T22:31:11.946Z,10.97
2018-09-06T22:33:40.958Z,11.37
2018-09-06T22:36:10.037Z,11.13
2018-09-06T22:38:39.058Z,11.53
2018-09-06T22:41:08.238Z,11.13
2018-09-06T22:43:37.198Z,12.30
2018-09-06T22:46:06.658Z,10.33
2018-09-06T22:48:35.746Z,12.10
2018-09-06T22:51:04.826Z,11.67
2018-09-06T22:53:34.241Z,10.67
2018-09-06T22:56:03.626Z,10.50
2018-09-06T22:58:32.568Z,12.00
2018-09-06T23:01:01.644Z,10.77
2018-09-06T23:03:35.731Z,11.20
2018-09-06T23:06:04.723Z,11.27
2018-09-06T23:08:33.669Z,12.27
2018-09-06T23:11:02.641Z,11.37
2018-09-06T23:13:31.691Z,11.07
2018-09-06T23:16:00.601Z,12.63
2018-09-06T23:18:29.558Z,11.20
2018-09-06T23:20:58.625Z,11.70
2018-09-06T23:23:27.626Z,11.60
2018-09-06T23:25:56.728Z,12.63
2018-09-06T23:28:25.806Z,11.97
2018-09-06T23:30:54.925Z,11.23
2018-09-06T23:33:24.071Z,11.70
2018-09-06T23:35:53.097Z,11.73
2018-09-06T23:38:22.146Z,11.13
2018-09-06T23:40:54.608Z,12.13
2018-09-06T23:43:24.546Z,11.37
2018-09-06T23:45:54.699Z,12.17
2018-09-06T23:48:27.729Z,11.90
2018-09-06T23:50:57.553Z,12.40
2018-09-06T23:53:27.681Z,11.80
2018-09-06T23:55:56.761Z,12.20
2018-09-06T23:58:25.812Z,11.77
